sensor_id;sensor_type;location;lat;lon;timestamp;pressure;altitude;pressure_sealevel;temperature;humidity
72285;BME280;60220;53.552;10.092;2023-03-20T00:00:17;101428.44;;;11.03;80.05
72285;BME280;60220;53.552;10.092;2023-03-20T00:02:44;101428.53;;;10.78;80.18
72285;BME280;60220;53.552;10.092;2023-03-20T00:05:15;101431.22;;;10.13;80.42
72285;BME280;60220;53.552;10.092;2023-03-20T00:07:46;101430.34;;;9.91;82.21
72285;BME280;60220;53.552;10.092;2023-03-20T00:10:16;101433.88;;;10.45;81.35
72285;BME280;60220;53.552;10.092;2023-03-20T00:12:45;101436.47;;;9.71;84.25
72285;BME280;60220;53.552;10.092;2023-03-20T00:15:23;101436.38;;;9.46;84.77
72285;BME280;60220;53.552;10.092;2023-03-20T00:17:50;101438.19;;;9.64;85.96
72285;BME280;60220;53.552;10.092;2023-03-20T00:20:20;101446.13;;;10.22;84.06
72285;BME280;60220;53.552;10.092;2023-03-20T00:22:47;101437.34;;;9.71;85.95
72285;BME280;60220;53.552;10.092;2023-03-20T00:25:16;101431.16;;;10.77;83.16
72285;BME280;60220;53.552;10.092;2023-03-20T00:27:44;101432.88;;;10.90;82.69
72285;BME280;60220;53.552;10.092;2023-03-20T00:30:19;101428.59;;;10.12;82.76
72285;BME280;60220;53.552;10.092;2023-03-20T00:32:49;101428.56;;;9.63;84.79
72285;BME280;60220;53.552;10.092;2023-03-20T00:35:18;101430.28;;;9.40;85.91
72285;BME280;60220;53.552;10.092;2023-03-20T00:37:45;101424.97;;;9.16;87.94
72285;BME280;60220;53.552;10.092;2023-03-20T00:40:14;101418.94;;;9.58;87.62
72285;BME280;60220;53.552;10.092;2023-03-20T00:42:46;101420.69;;;9.52;88.27
72285;BME280;60220;53.552;10.092;2023-03-20T00:45:16;101421.59;;;10.49;85.70
72285;BME280;60220;53.552;10.092;2023-03-20T00:47:44;101408.50;;;10.21;83.75
72285;BME280;60220;53.552;10.092;2023-03-20T00:50:19;101421.66;;;10.26;82.90
72285;BME280;60220;53.552;10.092;2023-03-20T00:52:47;101420.72;;;9.77;84.76
72285;BME280;60220;53.552;10.092;2023-03-20T00:55:19;101418.94;;;9.55;86.51
72285;BME280;60220;53.552;10.092;2023-03-20T00:57:50;101412.84;;;10.53;85.51
72285;BME280;60220;53.552;10.092;2023-03-20T01:00:21;101412.88;;;9.95;86.45
72285;BME280;60220;53.552;10.092;2023-03-20T01:02:50;101406.66;;;10.79;83.58
72285;BME280;60220;53.552;10.092;2023-03-20T01:05:17;101415.47;;;10.59;84.03
72285;BME280;60220;53.552;10.092;2023-03-20T01:07:46;101416.28;;;10.71;82.57
72285;BME280;60220;53.552;10.092;2023-03-20T01:10:13;101418.97;;;9.79;85.39
72285;BME280;60220;53.552;10.092;2023-03-20T01:12:42;101412.84;;;10.51;84.47
72285;BME280;60220;53.552;10.092;2023-03-20T01:15:17;101415.38;;;10.91;82.52
72285;BME280;60220;53.552;10.092;2023-03-20T01:17:45;101406.78;;;10.16;82.41
72285;BME280;60220;53.552;10.092;2023-03-20T01:20:18;101411.13;;;10.50;82.75
72285;BME280;60220;53.552;10.092;2023-03-20T01:22:48;101421.53;;;10.81;82.40
72285;BME280;60220;53.552;10.092;2023-03-20T01:25:16;101413.50;;;11.11;81.05
72285;BME280;60220;53.552;10.092;2023-03-20T01:27:47;101418.06;;;10.63;80.92
72285;BME280;60220;53.552;10.092;2023-03-20T01:30:22;101414.50;;;10.89;80.99
72285;BME280;60220;53.552;10.092;2023-03-20T01:32:49;101416.41;;;10.26;82.10
72285;BME280;60220;53.552;10.092;2023-03-20T01:35:20;101418.09;;;10.51;82.43
72285;BME280;60220;53.552;10.092;2023-03-20T01:37:47;101416.41;;;10.26;83.40
72285;BME280;60220;53.552;10.092;2023-03-20T01:40:29;101416.28;;;10.73;81.67
72285;BME280;60220;53.552;10.092;2023-03-20T01:43:01;101413.63;;;10.88;81.37
72285;BME280;60220;53.552;10.092;2023-03-20T01:45:33;101421.63;;;10.35;82.20
72285;BME280;60220;53.552;10.092;2023-03-20T01:48:04;101408.44;;;10.64;82.02
72285;BME280;60220;53.552;10.092;2023-03-20T01:50:37;101412.91;;;10.24;82.42
72285;BME280;60220;53.552;10.092;2023-03-20T01:53:09;101419.88;;;10.43;82.03
72285;BME280;60220;53.552;10.092;2023-03-20T01:55:38;101418.13;;;10.09;83.17
72285;BME280;60220;53.552;10.092;2023-03-20T01:58:12;101419.88;;;10.37;82.83
72285;BME280;60220;53.552;10.092;2023-03-20T02:00:40;101416.38;;;9.83;83.75
72285;BME280;60220;53.552;10.092;2023-03-20T02:03:08;101419.88;;;9.85;85.00
72285;BME280;60220;53.552;10.092;2023-03-20T02:05:37;101419.91;;;10.31;84.02
72285;BME280;60220;53.552;10.092;2023-03-20T02:08:15;101422.47;;;10.42;82.87
72285;BME280;60220;53.552;10.092;2023-03-20T02:10:44;101416.38;;;10.44;82.02
72285;BME280;60220;53.552;10.092;2023-03-20T02:13:13;101411.97;;;10.11;82.20
72285;BME280;60220;53.552;10.092;2023-03-20T02:16:01;101414.63;;;9.96;83.42
72285;BME280;60220;53.552;10.092;2023-03-20T02:18:30;101418.09;;;9.68;84.77
72285;BME280;60220;53.552;10.092;2023-03-20T02:21:28;101413.75;;;9.80;85.40
72285;BME280;60220;53.552;10.092;2023-03-20T02:27:01;101404.16;;;10.23;84.93
72285;BME280;60220;53.552;10.092;2023-03-20T02:32:58;101411.09;;;9.77;84.97
72285;BME280;60220;53.552;10.092;2023-03-20T02:35:56;101407.63;;;9.90;85.82
72285;BME280;60220;53.552;10.092;2023-03-20T02:41:29;101406.75;;;9.82;85.98
72285;BME280;60220;53.552;10.092;2023-03-20T02:44:02;101405.88;;;9.88;86.71
72285;BME280;60220;53.552;10.092;2023-03-20T02:46:35;101405.84;;;10.53;85.36
72285;BME280;60220;53.552;10.092;2023-03-20T02:49:09;101405.03;;;10.22;84.62
72285;BME280;60220;53.552;10.092;2023-03-20T02:51:45;101398.88;;;10.37;83.83
72285;BME280;60220;53.552;10.092;2023-03-20T02:54:22;101398.81;;;10.61;82.63
72285;BME280;60220;53.552;10.092;2023-03-20T02:57:00;101395.41;;;10.29;83.83
72285;BME280;60220;53.552;10.092;2023-03-20T02:59:33;101404.97;;;10.54;82.71
72285;BME280;60220;53.552;10.092;2023-03-20T03:02:05;101399.66;;;10.77;81.82
72285;BME280;60220;53.552;10.092;2023-03-20T03:04:35;101401.50;;;10.14;82.26
72285;BME280;60220;53.552;10.092;2023-03-20T03:07:04;101408.50;;;10.14;83.65
72285;BME280;60220;53.552;10.092;2023-03-20T03:09:38;101406.75;;;9.99;83.75
72285;BME280;60220;53.552;10.092;2023-03-20T03:12:11;101416.38;;;9.89;83.38
72285;BME280;60220;53.552;10.092;2023-03-20T03:14:43;101409.34;;;9.58;83.84
72285;BME280;60220;53.552;10.092;2023-03-20T03:17:12;101406.72;;;9.64;84.34
72285;BME280;60220;53.552;10.092;2023-03-20T03:19:42;101406.59;;;9.08;84.93
72285;BME280;60220;53.552;10.092;2023-03-20T03:22:12;101405.00;;;9.71;85.65
72285;BME280;60220;53.552;10.092;2023-03-20T03:24:44;101396.28;;;9.90;83.86
72285;BME280;60220;53.552;10.092;2023-03-20T03:27:16;101398.88;;;9.94;83.38
72285;BME280;60220;53.552;10.092;2023-03-20T03:29:48;101395.38;;;9.99;82.89
72285;BME280;60220;53.552;10.092;2023-03-20T03:32:29;101391.00;;;10.07;82.63
72285;BME280;60220;53.552;10.092;2023-03-20T03:34:57;101384.91;;;9.80;82.76
72285;BME280;60220;53.552;10.092;2023-03-20T03:37:38;101387.50;;;10.06;82.46
72285;BME280;60220;53.552;10.092;2023-03-20T03:40:25;101383.13;;;9.40;82.99
72285;BME280;60220;53.552;10.092;2023-03-20T03:42:57;101378.75;;;9.72;84.56
72285;BME280;60220;53.552;10.092;2023-03-20T03:45:32;101373.53;;;10.07;83.05
72285;BME280;60220;53.552;10.092;2023-03-20T03:48:04;101376.16;;;9.95;82.32
72285;BME280;60220;53.552;10.092;2023-03-20T03:50:36;101379.66;;;9.71;83.42
72285;BME280;60220;53.552;10.092;2023-03-20T03:53:09;101377.88;;;10.02;81.82
72285;BME280;60220;53.552;10.092;2023-03-20T03:55:43;101383.16;;;9.70;82.74
72285;BME280;60220;53.552;10.092;2023-03-20T03:58:17;101387.50;;;9.59;83.31
72285;BME280;60220;53.552;10.092;2023-03-20T04:00:46;101379.63;;;9.53;84.07
72285;BME280;60220;53.552;10.092;2023-03-20T04:03:16;101379.66;;;9.65;84.22
72285;BME280;60220;53.552;10.092;2023-03-20T04:05:47;101384.81;;;9.23;84.95
72285;BME280;60220;53.552;10.092;2023-03-20T04:08:15;101381.38;;;9.48;85.36
72285;BME280;60220;53.552;10.092;2023-03-20T04:10:45;101389.25;;;9.59;84.83
72285;BME280;60220;53.552;10.092;2023-03-20T04:13:12;101394.53;;;9.75;84.39
72285;BME280;60220;53.552;10.092;2023-03-20T04:15:40;101385.75;;;9.76;84.07
72285;BME280;60220;53.552;10.092;2023-03-20T04:18:08;101383.16;;;9.61;84.83
72285;BME280;60220;53.552;10.092;2023-03-20T04:20:42;101387.50;;;9.67;84.58
72285;BME280;60220;53.552;10.092;2023-03-20T04:23:08;101377.91;;;10.19;84.02
72285;BME280;60220;53.552;10.092;2023-03-20T04:25:35;101379.66;;;9.71;83.09
72285;BME280;60220;53.552;10.092;2023-03-20T04:28:04;101383.16;;;9.85;84.04
72285;BME280;60220;53.552;10.092;2023-03-20T04:30:30;101383.09;;;9.47;84.58
72285;BME280;60220;53.552;10.092;2023-03-20T04:32:57;101391.00;;;9.78;84.08
72285;BME280;60220;53.552;10.092;2023-03-20T04:35:24;101387.50;;;9.77;83.72
72285;BME280;60220;53.552;10.092;2023-03-20T04:37:51;101375.28;;;9.98;84.08
72285;BME280;60220;53.552;10.092;2023-03-20T04:40:20;101384.03;;;10.25;82.77
72285;BME280;60220;53.552;10.092;2023-03-20T04:42:46;101381.38;;;9.51;83.49
72285;BME280;60220;53.552;10.092;2023-03-20T04:45:15;101375.28;;;10.02;83.94
72285;BME280;60220;53.552;10.092;2023-03-20T04:47:41;101376.16;;;9.84;83.96
72285;BME280;60220;53.552;10.092;2023-03-20T04:50:10;101370.78;;;9.02;85.63
72285;BME280;60220;53.552;10.092;2023-03-20T04:52:40;101376.00;;;8.96;86.58
72285;BME280;60220;53.552;10.092;2023-03-20T04:55:09;101377.56;;;8.58;88.29
72285;BME280;60220;53.552;10.092;2023-03-20T04:57:36;101376.06;;;9.15;86.81
72285;BME280;60220;53.552;10.092;2023-03-20T05:00:03;101375.16;;;9.13;86.10
72285;BME280;60220;53.552;10.092;2023-03-20T05:02:32;101376.97;;;9.26;85.71
72285;BME280;60220;53.552;10.092;2023-03-20T05:04:59;101370.91;;;9.51;84.26
72285;BME280;60220;53.552;10.092;2023-03-20T05:07:25;101370.91;;;9.51;83.29
72285;BME280;60220;53.552;10.092;2023-03-20T05:09:52;101374.34;;;9.26;84.28
72285;BME280;60220;53.552;10.092;2023-03-20T05:12:20;101363.88;;;9.26;83.59
72285;BME280;60220;53.552;10.092;2023-03-20T05:14:47;101375.88;;;8.72;83.84
72285;BME280;60220;53.552;10.092;2023-03-20T05:17:13;101372.50;;;8.91;83.97
72285;BME280;60220;53.552;10.092;2023-03-20T05:19:44;101373.31;;;8.83;84.41
72285;BME280;60220;53.552;10.092;2023-03-20T05:22:11;101379.47;;;8.86;83.66
72285;BME280;60220;53.552;10.092;2023-03-20T05:24:37;101373.44;;;9.10;83.55
72285;BME280;60220;53.552;10.092;2023-03-20T05:27:06;101387.44;;;9.24;82.51
72285;BME280;60220;53.552;10.092;2023-03-20T05:29:33;101387.41;;;9.06;82.12
72285;BME280;60220;53.552;10.092;2023-03-20T05:32:01;101384.84;;;9.26;82.11
72285;BME280;60220;53.552;10.092;2023-03-20T05:34:27;101386.56;;;9.27;82.14
72285;BME280;60220;53.552;10.092;2023-03-20T05:36:55;101392.72;;;9.51;81.79
72285;BME280;60220;53.552;10.092;2023-03-20T05:39:22;101389.25;;;9.68;80.58
72285;BME280;60220;53.552;10.092;2023-03-20T05:41:49;101394.50;;;9.68;79.55
72285;BME280;60220;53.552;10.092;2023-03-20T05:44:16;101397.06;;;9.30;79.70
72285;BME280;60220;53.552;10.092;2023-03-20T05:46:42;101403.13;;;9.17;81.64
72285;BME280;60220;53.552;10.092;2023-03-20T05:49:09;101401.31;;;8.91;81.73
72285;BME280;60220;53.552;10.092;2023-03-20T05:51:36;101405.72;;;9.17;82.76
72285;BME280;60220;53.552;10.092;2023-03-20T05:54:04;101409.22;;;9.06;82.17
72285;BME280;60220;53.552;10.092;2023-03-20T05:56:31;101412.66;;;8.96;82.44
72285;BME280;60220;53.552;10.092;2023-03-20T05:58:58;101414.31;;;8.79;83.19
72285;BME280;60220;53.552;10.092;2023-03-20T06:01:24;101416.13;;;8.92;82.76
72285;BME280;60220;53.552;10.092;2023-03-20T06:03:51;101421.47;;;9.23;82.57
72285;BME280;60220;53.552;10.092;2023-03-20T06:06:18;101413.66;;;9.30;81.89
72285;BME280;60220;53.552;10.092;2023-03-20T06:08:44;101419.69;;;9.08;81.97
72285;BME280;60220;53.552;10.092;2023-03-20T06:11:12;101418.78;;;9.00;82.38
72285;BME280;60220;53.552;10.092;2023-03-20T06:13:40;101425.03;;;9.35;81.90
72285;BME280;60220;53.552;10.092;2023-03-20T06:16:07;101412.66;;;8.95;83.03
72285;BME280;60220;53.552;10.092;2023-03-20T06:18:34;101416.13;;;8.89;83.08
72285;BME280;60220;53.552;10.092;2023-03-20T06:21:06;101424.94;;;9.17;82.55
72285;BME280;60220;53.552;10.092;2023-03-20T06:23:35;101425.75;;;8.95;83.23
72285;BME280;60220;53.552;10.092;2023-03-20T06:26:05;101420.31;;;8.58;83.63
72285;BME280;60220;53.552;10.092;2023-03-20T06:28:33;101422.84;;;8.45;84.31
72285;BME280;60220;53.552;10.092;2023-03-20T06:31:00;101411.81;;;9.00;83.14
72285;BME280;60220;53.552;10.092;2023-03-20T06:33:29;101422.16;;;8.78;83.28
72285;BME280;60220;53.552;10.092;2023-03-20T06:35:56;101425.69;;;8.81;83.84
72285;BME280;60220;53.552;10.092;2023-03-20T06:38:23;101425.81;;;9.10;82.74
72285;BME280;60220;53.552;10.092;2023-03-20T06:40:52;101423.34;;;9.65;80.60
72285;BME280;60220;53.552;10.092;2023-03-20T06:43:20;101421.28;;;8.74;82.58
72285;BME280;60220;53.552;10.092;2023-03-20T06:45:48;101424.75;;;8.70;83.67
72285;BME280;60220;53.552;10.092;2023-03-20T06:48:15;101419.63;;;8.94;82.40
72285;BME280;60220;53.552;10.092;2023-03-20T06:50:47;101421.47;;;9.15;82.16
72285;BME280;60220;53.552;10.092;2023-03-20T06:53:13;101423.25;;;9.30;81.33
72285;BME280;60220;53.552;10.092;2023-03-20T06:55:41;101421.34;;;8.86;81.31
72285;BME280;60220;53.552;10.092;2023-03-20T06:58:08;101423.19;;;9.10;81.70
72285;BME280;60220;53.552;10.092;2023-03-20T07:00:35;101424.97;;;9.28;80.42
72285;BME280;60220;53.552;10.092;2023-03-20T07:03:03;101425.78;;;9.01;81.13
72285;BME280;60220;53.552;10.092;2023-03-20T07:05:30;101425.78;;;9.07;80.19
72285;BME280;60220;53.552;10.092;2023-03-20T07:07:57;101427.59;;;9.19;80.42
72285;BME280;60220;53.552;10.092;2023-03-20T07:10:23;101434.66;;;9.36;79.86
72285;BME280;60220;53.552;10.092;2023-03-20T07:12:53;101445.03;;;9.18;79.67
72285;BME280;60220;53.552;10.092;2023-03-20T07:15:21;101440.63;;;9.00;80.34
72285;BME280;60220;53.552;10.092;2023-03-20T07:17:49;101442.28;;;8.86;80.43
72285;BME280;60220;53.552;10.092;2023-03-20T07:20:17;101441.56;;;9.19;80.01
72285;BME280;60220;53.552;10.092;2023-03-20T07:22:44;101449.38;;;9.05;80.59
72285;BME280;60220;53.552;10.092;2023-03-20T07:25:11;101438.97;;;9.25;80.10
72285;BME280;60220;53.552;10.092;2023-03-20T07:27:37;101445.16;;;9.59;78.82
72285;BME280;60220;53.552;10.092;2023-03-20T07:30:05;101442.38;;;9.01;80.54
72285;BME280;60220;53.552;10.092;2023-03-20T07:32:33;101453.00;;;9.47;80.07
72285;BME280;60220;53.552;10.092;2023-03-20T07:35:00;101443.34;;;9.29;79.28
72285;BME280;60220;53.552;10.092;2023-03-20T07:37:28;101445.16;;;9.55;78.16
72285;BME280;60220;53.552;10.092;2023-03-20T07:39:54;101453.00;;;9.50;79.91
72285;BME280;60220;53.552;10.092;2023-03-20T07:42:21;101448.59;;;9.34;78.80
72285;BME280;60220;53.552;10.092;2023-03-20T07:44:48;101459.84;;;9.05;78.99
72285;BME280;60220;53.552;10.092;2023-03-20T07:47:14;101454.56;;;9.02;79.67
72285;BME280;60220;53.552;10.092;2023-03-20T07:49:41;101460.94;;;9.80;77.36
72285;BME280;60220;53.552;10.092;2023-03-20T07:52:08;101460.94;;;10.02;76.96
72285;BME280;60220;53.552;10.092;2023-03-20T07:54:36;101449.50;;;9.48;77.13
72285;BME280;60220;53.552;10.092;2023-03-20T07:57:03;101449.44;;;9.24;78.56
72285;BME280;60220;53.552;10.092;2023-03-20T07:59:30;101452.13;;;9.49;77.82
72285;BME280;60220;53.552;10.092;2023-03-20T08:01:57;101460.81;;;9.29;77.07
72285;BME280;60220;53.552;10.092;2023-03-20T08:04:24;101453.97;;;9.85;76.93
72285;BME280;60220;53.552;10.092;2023-03-20T08:06:50;101458.28;;;9.62;76.52
72285;BME280;60220;53.552;10.092;2023-03-20T08:09:19;101449.59;;;9.84;75.61
72285;BME280;60220;53.552;10.092;2023-03-20T08:11:47;101449.47;;;9.37;76.60
72285;BME280;60220;53.552;10.092;2023-03-20T08:14:16;101454.75;;;9.45;76.87
72285;BME280;60220;53.552;10.092;2023-03-20T08:16:43;101456.38;;;9.10;76.88
72285;BME280;60220;53.552;10.092;2023-03-20T08:19:10;101458.91;;;8.94;77.66
72285;BME280;60220;53.552;10.092;2023-03-20T08:21:37;101469.50;;;9.20;77.70
72285;BME280;60220;53.552;10.092;2023-03-20T08:24:05;101477.53;;;9.79;75.67
72285;BME280;60220;53.552;10.092;2023-03-20T08:26:33;101474.94;;;9.85;74.80
72285;BME280;60220;53.552;10.092;2023-03-20T08:29:01;101482.78;;;9.79;75.32
72285;BME280;60220;53.552;10.092;2023-03-20T08:31:28;101481.00;;;9.63;76.44
72285;BME280;60220;53.552;10.092;2023-03-20T08:33:56;101485.38;;;9.64;75.70
72285;BME280;60220;53.552;10.092;2023-03-20T08:36:23;101480.97;;;9.57;76.23
72285;BME280;60220;53.552;10.092;2023-03-20T08:38:52;101482.47;;;8.97;77.26
72285;BME280;60220;53.552;10.092;2023-03-20T08:41:19;101484.09;;;8.77;78.95
72285;BME280;60220;53.552;10.092;2023-03-20T08:43:45;101482.47;;;8.91;78.84
72285;BME280;60220;53.552;10.092;2023-03-20T08:46:13;101484.13;;;8.80;79.68
72285;BME280;60220;53.552;10.092;2023-03-20T08:48:40;101482.56;;;9.10;80.76
72285;BME280;60220;53.552;10.092;2023-03-20T08:51:07;101487.88;;;9.34;78.75
72285;BME280;60220;53.552;10.092;2023-03-20T08:53:34;101486.09;;;9.24;78.74
72285;BME280;60220;53.552;10.092;2023-03-20T08:56:01;101479.25;;;9.65;78.26
72285;BME280;60220;53.552;10.092;2023-03-20T08:58:28;101490.38;;;9.00;79.08
72285;BME280;60220;53.552;10.092;2023-03-20T09:00:55;101487.00;;;9.33;77.83
72285;BME280;60220;53.552;10.092;2023-03-20T09:03:25;101482.59;;;9.19;78.66
72285;BME280;60220;53.552;10.092;2023-03-20T09:05:52;101482.78;;;9.70;77.90
72285;BME280;60220;53.552;10.092;2023-03-20T09:08:18;101491.47;;;9.54;78.74
72285;BME280;60220;53.552;10.092;2023-03-20T09:10:46;101480.78;;;9.05;79.04
72285;BME280;60220;53.552;10.092;2023-03-20T09:13:15;101487.06;;;9.45;79.39
72285;BME280;60220;53.552;10.092;2023-03-20T09:15:42;101482.66;;;9.31;77.44
72285;BME280;60220;53.552;10.092;2023-03-20T09:18:09;101475.63;;;9.21;77.49
72285;BME280;60220;53.552;10.092;2023-03-20T09:20:37;101478.41;;;9.75;76.67
72285;BME280;60220;53.552;10.092;2023-03-20T09:23:03;101480.19;;;9.94;75.67
72285;BME280;60220;53.552;10.092;2023-03-20T09:25:30;101475.75;;;9.51;75.43
72285;BME280;60220;53.552;10.092;2023-03-20T09:27:57;101478.41;;;9.81;75.04
72285;BME280;60220;53.552;10.092;2023-03-20T09:30:24;101490.53;;;9.38;75.69
72285;BME280;60220;53.552;10.092;2023-03-20T09:32:51;101486.25;;;9.69;74.55
72285;BME280;60220;53.552;10.092;2023-03-20T09:35:17;101479.28;;;9.83;73.94
72285;BME280;60220;53.552;10.092;2023-03-20T09:37:46;101478.44;;;9.90;75.03
72285;BME280;60220;53.552;10.092;2023-03-20T09:40:22;101482.84;;;10.43;73.71
72285;BME280;60220;53.552;10.092;2023-03-20T09:42:57;101471.47;;;10.58;72.73
72285;BME280;60220;53.552;10.092;2023-03-20T09:45:39;101482.00;;;10.46;71.14
72285;BME280;60220;53.552;10.092;2023-03-20T09:48:13;101488.03;;;9.82;73.18
72285;BME280;60220;53.552;10.092;2023-03-20T09:50:47;101487.22;;;10.23;73.21
72285;BME280;60220;53.552;10.092;2023-03-20T09:53:24;101489.81;;;10.14;71.99
72285;BME280;60220;53.552;10.092;2023-03-20T09:55:53;101490.69;;;10.13;73.58
72285;BME280;60220;53.552;10.092;2023-03-20T09:58:25;101484.63;;;10.26;72.35
72285;BME280;60220;53.552;10.092;2023-03-20T10:00:55;101493.34;;;10.46;71.65
72285;BME280;60220;53.552;10.092;2023-03-20T10:03:27;101500.38;;;10.35;71.19
72285;BME280;60220;53.552;10.092;2023-03-20T10:05:59;101496.81;;;10.15;71.31
72285;BME280;60220;53.552;10.092;2023-03-20T10:08:33;101499.47;;;10.42;72.18
72285;BME280;60220;53.552;10.092;2023-03-20T10:11:09;101489.88;;;10.50;70.95
72285;BME280;60220;53.552;10.092;2023-03-20T10:14:06;101495.06;;;10.00;72.15
72285;BME280;60220;53.552;10.092;2023-03-20T10:16:45;101493.25;;;9.73;72.02
72285;BME280;60220;53.552;10.092;2023-03-20T10:19:21;101498.53;;;9.88;73.27
72285;BME280;60220;53.552;10.092;2023-03-20T10:21:52;101501.09;;;9.60;73.41
72285;BME280;60220;53.552;10.092;2023-03-20T10:24:28;101496.66;;;9.39;74.21
72285;BME280;60220;53.552;10.092;2023-03-20T10:27:02;101499.34;;;9.65;73.82
72285;BME280;60220;53.552;10.092;2023-03-20T10:29:40;101495.03;;;9.92;72.59
72285;BME280;60220;53.552;10.092;2023-03-20T10:32:16;101487.19;;;9.91;72.56
72285;BME280;60220;53.552;10.092;2023-03-20T10:34:57;101485.38;;;9.73;72.43
72285;BME280;60220;53.552;10.092;2023-03-20T10:37:37;101481.94;;;9.94;71.23
72285;BME280;60220;53.552;10.092;2023-03-20T10:40:20;101477.56;;;9.84;70.65
72285;BME280;60220;53.552;10.092;2023-03-20T10:42:51;101473.06;;;9.43;71.26
72285;BME280;60220;53.552;10.092;2023-03-20T10:45:27;101468.78;;;9.70;71.65
72285;BME280;60220;53.552;10.092;2023-03-20T10:47:57;101474.06;;;9.92;70.46
72285;BME280;60220;53.552;10.092;2023-03-20T10:50:28;101465.25;;;9.57;70.46
72285;BME280;60220;53.552;10.092;2023-03-20T10:53:01;101466.94;;;9.37;70.72
72285;BME280;60220;53.552;10.092;2023-03-20T10:55:31;101462.59;;;9.45;71.40
72285;BME280;60220;53.552;10.092;2023-03-20T10:58:07;101461.81;;;9.82;70.11
72285;BME280;60220;53.552;10.092;2023-03-20T11:00:39;101463.56;;;9.83;69.17
72285;BME280;60220;53.552;10.092;2023-03-20T11:03:12;101468.75;;;9.56;70.03
72285;BME280;60220;53.552;10.092;2023-03-20T11:05:42;101453.09;;;9.99;69.43
72285;BME280;60220;53.552;10.092;2023-03-20T11:08:12;101446.09;;;10.10;68.89
72285;BME280;60220;53.552;10.092;2023-03-20T11:10:41;101451.34;;;10.52;67.61
72285;BME280;60220;53.552;10.092;2023-03-20T11:13:15;101454.84;;;10.54;66.62
72285;BME280;60220;53.552;10.092;2023-03-20T11:15:44;101452.25;;;10.39;66.81
72285;BME280;60220;53.552;10.092;2023-03-20T11:18:14;101454.84;;;10.06;66.78
72285;BME280;60220;53.552;10.092;2023-03-20T11:20:45;101456.56;;;9.73;68.10
72285;BME280;60220;53.552;10.092;2023-03-20T11:23:15;101458.31;;;9.74;67.05
72285;BME280;60220;53.552;10.092;2023-03-20T11:25:49;101459.22;;;10.10;67.12
72285;BME280;60220;53.552;10.092;2023-03-20T11:28:37;101455.72;;;10.47;66.52
72285;BME280;60220;53.552;10.092;2023-03-20T11:31:06;101452.19;;;9.75;67.45
72285;BME280;60220;53.552;10.092;2023-03-20T11:33:43;101439.97;;;10.41;67.79
72285;BME280;60220;53.552;10.092;2023-03-20T11:36:19;101441.72;;;10.09;67.15
72285;BME280;60220;53.552;10.092;2023-03-20T11:38:46;101434.75;;;10.33;66.22
72285;BME280;60220;53.552;10.092;2023-03-20T11:41:23;101438.28;;;10.20;66.38
72285;BME280;60220;53.552;10.092;2023-03-20T11:43:50;101444.25;;;10.94;64.73
72285;BME280;60220;53.552;10.092;2023-03-20T11:46:18;101441.72;;;9.92;65.39
72285;BME280;60220;53.552;10.092;2023-03-20T11:49:05;101435.59;;;10.55;65.96
72285;BME280;60220;53.552;10.092;2023-03-20T11:51:35;101439.09;;;9.93;66.99
72285;BME280;60220;53.552;10.092;2023-03-20T11:54:04;101442.63;;;10.50;65.29
72285;BME280;60220;53.552;10.092;2023-03-20T11:56:35;101439.97;;;10.00;65.82
72285;BME280;60220;53.552;10.092;2023-03-20T11:59:08;101440.88;;;10.01;65.57
72285;BME280;60220;53.552;10.092;2023-03-20T12:01:41;101432.06;;;10.56;65.16
72285;BME280;60220;53.552;10.092;2023-03-20T12:04:12;101436.53;;;10.21;64.65
72285;BME280;60220;53.552;10.092;2023-03-20T12:06:51;101430.38;;;9.85;65.11
72285;BME280;60220;53.552;10.092;2023-03-20T12:09:36;101435.59;;;9.98;65.33
72285;BME280;60220;53.552;10.092;2023-03-20T12:12:12;101431.28;;;10.25;64.42
72285;BME280;60220;53.552;10.092;2023-03-20T12:14:46;101433.00;;;10.40;63.53
72285;BME280;60220;53.552;10.092;2023-03-20T12:17:34;101439.06;;;10.66;63.60
72285;BME280;60220;53.552;10.092;2023-03-20T12:20:13;101429.44;;;10.73;63.08
72285;BME280;60220;53.552;10.092;2023-03-20T12:22:46;101432.00;;;10.96;62.71
72285;BME280;60220;53.552;10.092;2023-03-20T12:25:21;101430.13;;;11.22;62.13
72285;BME280;60220;53.552;10.092;2023-03-20T12:27:54;101434.69;;;10.73;62.39
72285;BME280;60220;53.552;10.092;2023-03-20T12:30:29;101426.84;;;10.41;63.12
72285;BME280;60220;53.552;10.092;2023-03-20T12:33:00;101436.38;;;10.89;62.71
72285;BME280;60220;53.552;10.092;2023-03-20T12:35:35;101429.38;;;10.96;61.77
72285;BME280;60220;53.552;10.092;2023-03-20T12:38:03;101424.16;;;10.81;61.50
72285;BME280;60220;53.552;10.092;2023-03-20T12:40:38;101426.66;;;11.06;61.44
72285;BME280;60220;53.552;10.092;2023-03-20T12:43:13;101432.03;;;10.81;61.92
72285;BME280;60220;53.552;10.092;2023-03-20T12:45:46;101421.53;;;10.71;62.13
72285;BME280;60220;53.552;10.092;2023-03-20T12:48:30;101418.94;;;10.70;62.06
72285;BME280;60220;53.552;10.092;2023-03-20T12:51:05;101416.38;;;10.38;62.48
72285;BME280;60220;53.552;10.092;2023-03-20T12:53:48;101418.16;;;10.36;62.22
72285;BME280;60220;53.552;10.092;2023-03-20T12:56:27;101410.28;;;10.30;63.18
72285;BME280;60220;53.552;10.092;2023-03-20T12:59:05;101406.69;;;10.63;62.55
72285;BME280;60220;53.552;10.092;2023-03-20T13:01:38;101410.06;;;11.03;61.92
72285;BME280;60220;53.552;10.092;2023-03-20T13:04:40;101401.97;;;11.42;61.54
72285;BME280;60220;53.552;10.092;2023-03-20T13:07:16;101406.25;;;11.60;60.46
72285;BME280;60220;53.552;10.092;2023-03-20T13:09:54;101400.34;;;11.20;59.96
72285;BME280;60220;53.552;10.092;2023-03-20T13:12:33;101398.63;;;11.11;60.13